地図

経路データ

SID SEASON NUMBER BASIN SUBBASIN NAME ISO_TIME NATURE LAT LON WMO_WIND WMO_PRES WMO_AGENCY TRACK_TYPE DIST2LAND LANDFALL IFLAG USA_AGENCY USA_ATCF_ID USA_LAT USA_LON USA_RECORD USA_STATUS USA_WIND USA_PRES USA_SSHS USA_R34_NE USA_R34_SE USA_R34_SW USA_R34_NW USA_R50_NE USA_R50_SE USA_R50_SW USA_R50_NW USA_R64_NE USA_R64_SE USA_R64_SW USA_R64_NW USA_POCI USA_ROCI USA_RMW USA_EYE TOKYO_LAT TOKYO_LON TOKYO_GRADE TOKYO_WIND TOKYO_PRES TOKYO_R50_DIR TOKYO_R50_LONG TOKYO_R50_SHORT TOKYO_R30_DIR TOKYO_R30_LONG TOKYO_R30_SHORT TOKYO_LAND CMA_LAT CMA_LON CMA_CAT CMA_WIND CMA_PRES HKO_LAT HKO_LON HKO_CAT HKO_WIND HKO_PRES NEWDELHI_LAT NEWDELHI_LON NEWDELHI_GRADE NEWDELHI_WIND NEWDELHI_PRES NEWDELHI_CI NEWDELHI_DP NEWDELHI_POCI REUNION_LAT REUNION_LON REUNION_TYPE REUNION_WIND REUNION_PRES REUNION_TNUM REUNION_CI REUNION_RMW REUNION_R34_NE REUNION_R34_SE REUNION_R34_SW REUNION_R34_NW REUNION_R50_NE REUNION_R50_SE REUNION_R50_SW REUNION_R50_NW REUNION_R64_NE REUNION_R64_SE REUNION_R64_SW REUNION_R64_NW BOM_LAT BOM_LON BOM_TYPE BOM_WIND BOM_PRES BOM_TNUM BOM_CI BOM_RMW BOM_R34_NE BOM_R34_SE BOM_R34_SW BOM_R34_NW BOM_R50_NE BOM_R50_SE BOM_R50_SW BOM_R50_NW BOM_R64_NE BOM_R64_SE BOM_R64_SW BOM_R64_NW BOM_ROCI BOM_POCI BOM_EYE BOM_POS_METHOD BOM_PRES_METHOD NADI_LAT NADI_LON NADI_CAT NADI_WIND NADI_PRES WELLINGTON_LAT WELLINGTON_LON WELLINGTON_WIND WELLINGTON_PRES DS824_LAT DS824_LON DS824_STAGE DS824_WIND DS824_PRES TD9636_LAT TD9636_LON TD9636_STAGE TD9636_WIND TD9636_PRES TD9635_LAT TD9635_LON TD9635_WIND TD9635_PRES TD9635_ROCI NEUMANN_LAT NEUMANN_LON NEUMANN_CLASS NEUMANN_WIND NEUMANN_PRES MLC_LAT MLC_LON MLC_CLASS MLC_WIND MLC_PRES USA_GUST BOM_GUST BOM_GUST_PER REUNION_GUST REUNION_GUST_PER USA_SEAHGT USA_SEARAD_NE USA_SEARAD_SE USA_SEARAD_SW USA_SEARAD_NW STORM_SPEED STORM_DIR
1988211N12239 1988 40 EP MM FABIO 1988-07-28 18:00:00 TS 12.0000 -121.000 25 1011 hurdat_epa main 1686 1686 O_________O___ hurdat_epa EP061988 12.0000 -121.000 TD 25 1011 -1 12.0000 -121.000 1 25 10 270
1988211N12239 1988 40 EP MM FABIO 1988-07-28 21:00:00 TS 12.0000 -121.500 main 1723 1723 P_________P___ EP061988 12.0002 -121.500 TD 25 1010 -1 11.9993 -121.500 1 25 10 270
1988211N12239 1988 40 EP MM FABIO 1988-07-29 00:00:00 TS 12.0000 -122.000 25 1009 hurdat_epa main 1761 1761 O_________O___ hurdat_epa EP061988 12.0000 -122.000 TD 25 1009 -1 12.0000 -122.000 1 25 10 270
1988211N12239 1988 40 EP MM FABIO 1988-07-29 03:00:00 TS 12.0007 -122.500 main 1793 1793 P_________P___ EP061988 11.9999 -122.500 TD 27 1008 -1 12.0032 -122.500 1 26 10 270
1988211N12239 1988 40 EP MM FABIO 1988-07-29 06:00:00 TS 12.0016 -123.000 30 1008 hurdat_epa main 1826 1826 O_________P___ hurdat_epa EP061988 12.0000 -123.000 TD 30 1008 -1 12.0065 -123.000 1 27 10 270
1988211N12239 1988 40 EP MM FABIO 1988-07-29 09:00:00 TS 12.0016 -123.500 main 1859 1859 P_________P___ EP061988 11.9999 -123.500 TD 30 1007 -1 12.0066 -123.500 1 28 10 270
1988211N12239 1988 40 EP MM FABIO 1988-07-29 12:00:00 TS 12.0000 -124.000 30 1006 hurdat_epa main 1893 1893 O_________O___ hurdat_epa EP061988 12.0000 -124.000 TD 30 1006 -1 12.0000 -124.000 1 30 10 270
1988211N12239 1988 40 EP MM FABIO 1988-07-29 15:00:00 TS 12.0001 -124.503 main 1929 1929 P_________P___ EP061988 12.0074 -124.500 TD 35 1004 0 11.9780 -124.512 1 35 10 269
1988211N12239 1988 40 EP MM FABIO 1988-07-29 18:00:00 TS 11.9875 -125.006 40 1003 hurdat_epa main 1965 1965 O_________P___ hurdat_epa EP061988 12.0000 -125.000 TS 40 1003 0 11.9499 -125.023 1 40 10 267
1988211N12239 1988 40 EP MM FABIO 1988-07-29 21:00:00 TS 11.9429 -125.511 main 2010 2010 P_________P___ EP061988 11.9499 -125.508 TS 45 1001 0 11.9218 -125.522 1 45 10 265
1988211N12239 1988 40 EP MM FABIO 1988-07-30 00:00:00 TS 11.9000 -126.000 50 999 hurdat_epa main 2047 2047 O_________O___ hurdat_epa EP061988 11.9000 -126.000 TS 50 999 0 11.9000 -126.000 2 50 9 267
1988211N12239 1988 40 EP MM FABIO 1988-07-30 03:00:00 TS 11.8914 -126.458 main 2084 2084 P_________P___ EP061988 11.8924 -126.465 TS 52 996 0 11.8883 -126.438 2 51 9 270
1988211N12239 1988 40 EP MM FABIO 1988-07-30 06:00:00 TS 11.8961 -126.889 55 994 hurdat_epa main 2115 2115 O_________P___ hurdat_epa EP061988 11.9000 -126.900 TS 55 994 0 11.8844 -126.857 2 52 8 270
1988211N12239 1988 40 EP MM FABIO 1988-07-30 09:00:00 TS 11.8970 -127.293 main 2146 2146 P_________P___ EP061988 11.8999 -127.300 TS 55 992 0 11.8883 -127.273 2 53 8 270
1988211N12239 1988 40 EP MM FABIO 1988-07-30 12:00:00 TS 11.9000 -127.700 55 991 hurdat_epa main 2177 2177 O_________O___ hurdat_epa EP061988 11.9000 -127.700 TS 55 991 0 11.9000 -127.700 2 55 8 270
1988211N12239 1988 40 EP MM FABIO 1988-07-30 15:00:00 TS 11.8977 -128.142 main 2209 2209 P_________P___ EP061988 11.8924 -128.135 TS 57 989 0 11.9137 -128.165 2 56 9 271
1988211N12239 1988 40 EP MM FABIO 1988-07-30 18:00:00 TS 11.9087 -128.611 60 988 hurdat_epa main 2249 2249 O_________P___ hurdat_epa EP061988 11.9000 -128.600 TS 60 988 0 11.9349 -128.643 2 57 9 273
1988211N12239 1988 40 EP MM FABIO 1988-07-30 21:00:00 TS 11.9478 -129.100 main 2290 2282 P_________P___ EP061988 11.9424 -129.092 TS 60 987 0 11.9637 -129.124 2 58 10 275
1988211N12239 1988 40 EP MM FABIO 1988-07-31 00:00:00 TS 12.0000 -129.600 60 986 hurdat_epa main 2322 2322 O_________O___ hurdat_epa EP061988 12.0000 -129.600 TS 60 986 0 12.0000 -129.600 2 60 10 276
1988211N12239 1988 40 EP MM FABIO 1988-07-31 03:00:00 TS 12.0471 -130.100 main 2356 2354 P_________P___ EP061988 12.0500 -130.115 TS 60 985 0 12.0384 -130.053 2 61 10 276
1988211N12239 1988 40 EP MM FABIO 1988-07-31 06:00:00 TS 12.0961 -130.575 60 984 hurdat_epa main 2382 2382 O_________P___ hurdat_epa EP061988 12.1000 -130.600 TS 60 984 0 12.0846 -130.500 2 62 9 276
1988211N12239 1988 40 EP MM FABIO 1988-07-31 09:00:00 TS 12.1414 -130.992 main 2411 2410 P_________P___ EP061988 12.1423 -131.008 TS 62 983 0 12.1384 -130.947 2 63 8 277
1988211N12239 1988 40 EP MM FABIO 1988-07-31 12:00:00 TS 12.2000 -131.400 65 982 hurdat_epa main 2432 2432 O_________O___ hurdat_epa EP061988 12.2000 -131.400 HU 65 982 1 12.2000 -131.400 3 65 8 280
1988211N12239 1988 40 EP MM FABIO 1988-07-31 15:00:00 TS 12.2918 -131.842 main 2453 2453 P_________P___ EP061988 12.2999 -131.835 HU 65 981 1 12.2676 -131.864 3 66 9 282
1988211N12239 1988 40 EP MM FABIO 1988-07-31 18:00:00 TS 12.3855 -132.309 65 981 hurdat_epa main 2482 2480 O_________P___ hurdat_epa EP061988 12.4000 -132.300 HU 65 981 1 12.3422 -132.335 3 67 9 279
1988211N12239 1988 40 EP MM FABIO 1988-07-31 21:00:00 TS 12.4426 -132.798 main 2480 2425 P_________P___ EP061988 12.4499 -132.793 HU 67 980 1 12.4207 -132.814 3 68 10 277
1988211N12239 1988 40 EP MM FABIO 1988-08-01 00:00:00 TS 12.5000 -133.300 70 980 hurdat_epa main 2425 2371 O_________O___ hurdat_epa EP061988 12.5000 -133.300 HU 70 980 1 12.5000 -133.300 4 70 10 279
1988211N12239 1988 40 EP MM FABIO 1988-08-01 03:00:00 TS 12.5946 -133.796 main 2371 2316 P_________P___ EP061988 12.5999 -133.800 HU 70 979 1 12.5787 -133.785 4 71 10 281
1988211N12239 1988 40 EP MM FABIO 1988-08-01 06:00:00 TS 12.6893 -134.294 70 978 hurdat_epa main 2316 2266 O_________P___ hurdat_epa EP061988 12.7000 -134.300 HU 70 978 1 12.6570 -134.278 4 72 10 279
1988211N12239 1988 40 EP MM FABIO 1988-08-01 09:00:00 TS 12.7510 -134.790 main 2262 2212 P_________P___ EP061988 12.7574 -134.793 HU 72 977 1 12.7318 -134.782 4 73 10 276
1988211N12239 1988 40 EP MM FABIO 1988-08-01 12:00:00 TS 12.8000 -135.300 75 976 hurdat_epa main 2212 2162 O_________O___ hurdat_epa EP061988 12.8000 -135.300 HU 75 976 1 12.8000 -135.300 4 75 10 276
1988211N12239 1988 40 EP MM FABIO 1988-08-01 15:00:00 TS 12.8517 -135.842 main 2157 2097 P_________P___ EP061988 12.8499 -135.843 HU 75 975 1 12.8570 -135.840 4 76 11 275
1988211N12239 1988 40 EP MM FABIO 1988-08-01 18:00:00 TS 12.9018 -136.398 75 974 hurdat_epa main 2097 2043 O_________P___ hurdat_epa EP061988 12.9000 -136.400 HU 75 974 1 12.9073 -136.393 4 77 11 276
1988211N12239 1988 40 EP MM FABIO 1988-08-01 21:00:00 TS 12.9566 -136.955 main 2033 1983 P_________P___ EP061988 12.9574 -136.957 HU 77 973 1 12.9539 -136.949 4 78 11 275
1988211N12239 1988 40 EP MM FABIO 1988-08-02 00:00:00 TS 13.0000 -137.500 80 972 hurdat_epa main 1983 1934 O_________O___ hurdat_epa EP061988 13.0000 -137.500 HU 80 972 1 13.0000 -137.500 4 80 10 273
1988211N12239 1988 40 EP MM FABIO 1988-08-02 03:00:00 TS 13.0036 -138.008 main 1934 1885 P_________P___ EP061988 12.9923 -138.000 HU 82 971 1 13.0374 -138.032 4 82 10 271
1988211N12239 1988 40 EP MM FABIO 1988-08-02 06:00:00 TS 13.0192 -138.514 85 970 hurdat_epa main 1885 1831 O_________P___ hurdat_epa EP061988 13.0000 -138.500 HU 85 970 2 13.0770 -138.558 4 85 10 275
1988211N12239 1988 40 EP MM FABIO 1988-08-02 09:00:00 TS 13.0957 -139.052 main 1821 1767 P_________P___ EP061988 13.0849 -139.042 HU 87 968 2 13.1281 -139.079 4 87 11 280
1988211N12239 1988 40 EP MM FABIO 1988-08-02 12:00:00 TS 13.2000 -139.600 90 966 hurdat_epa main 1767 1713 O_________O___ hurdat_epa EP061988 13.2000 -139.600 HU 90 966 2 13.2000 -139.600 4 90 11 280
1988211N12239 1988 40 EP CP FABIO 1988-08-02 15:00:00 TS 13.2900 -140.151 main 1704 1650 P_________P___ EP061988 13.2924 -140.158 HU 92 963 2 13.2829 -140.129 4 93 11 281
1988211N12239 1988 40 EP CP FABIO 1988-08-02 18:00:00 TS 13.3976 -140.690 95 960 hurdat_epa main 1650 1597 O_________P___ hurdat_epa EP061988 13.4000 -140.700 HU 95 960 2 13.3897 -140.658 4 97 11 283
1988211N12239 1988 40 EP CP FABIO 1988-08-02 21:00:00 TS 13.5275 -141.201 main 1597 1538 P_________P___ EP061988 13.5274 -141.208 HU 100 955 3 13.5266 -141.183 4 101 10 287
1988211N12239 1988 40 EP CP FABIO 1988-08-03 00:00:00 TS 13.7000 -141.700 105 950 hurdat_epa main 1538 1480 O_________O___ hurdat_epa EP061988 13.7000 -141.700 HU 105 950 3 13.7000 -141.700 4 105 10 293
1988211N12239 1988 40 EP CP FABIO 1988-08-03 03:00:00 TS 13.9306 -142.191 main 1480 1417 P_________P___ EP061988 13.9349 -142.193 HU 110 947 3 13.9134 -142.187 4 108 11 297
1988211N12239 1988 40 EP CP FABIO 1988-08-03 06:00:00 TS 14.1923 -142.694 115 944 hurdat_epa main 1417 1359 O_________P___ hurdat_epa EP061988 14.2000 -142.700 HU 115 944 4 14.1615 -142.670 4 112 11 297
1988211N12239 1988 40 EP CP FABIO 1988-08-03 09:00:00 TS 14.4457 -143.222 main 1359 1295 P_________P___ EP061988 14.4499 -143.235 HU 117 943 4 14.4289 -143.168 4 116 12 296
1988211N12239 1988 40 EP CP FABIO 1988-08-03 12:00:00 TS 14.7000 -143.780 120 943 hurdat_epa main 1286 1228 O_________O___ hurdat_epa EP061988 14.7000 -143.800 HU 120 943 4 14.7000 -143.700 4 120 12 294
1988211N12239 1988 40 EP CP FABIO 1988-08-03 15:00:00 TS 14.9540 -144.375 main 1213 1145 P_________P___ EP061988 14.9499 -144.393 HU 115 951 4 14.9705 -144.305 4 115 13 293
1988211N12239 1988 40 EP CP FABIO 1988-08-03 18:00:00 TS 15.2076 -144.988 110 959 hurdat_epa main 1145 1073 O_________P___ hurdat_epa EP061988 15.2000 -145.000 HU 110 959 3 15.2379 -144.942 4 110 13 293
1988211N12239 1988 40 EP CP FABIO 1988-08-03 21:00:00 TS 15.4692 -145.609 main 1073 1005 P_________P___ EP061988 15.4650 -145.615 HU 105 968 3 15.4862 -145.583 4 105 13 293
1988211N12239 1988 40 EP CP FABIO 1988-08-04 00:00:00 TS 15.7000 -146.200 100 977 hurdat_epa main 1005 947 O_________O___ hurdat_epa EP061988 15.7000 -146.200 HU 100 977 3 15.7000 -146.200 4 100 11 291
1988211N12239 1988 40 EP CP FABIO 1988-08-04 03:00:00 TS 15.8763 -146.715 main 947 895 P_________P___ EP061988 15.8722 -146.708 HU 95 979 2 15.8925 -146.746 4 93 10 288
1988211N12239 1988 40 EP CP FABIO 1988-08-04 06:00:00 TS 16.0093 -147.213 90 981 hurdat_epa main 895 842 O_________P___ hurdat_epa EP061988 16.0000 -147.200 HU 90 981 2 16.0463 -147.265 4 87 10 284
1988211N12239 1988 40 EP CP FABIO 1988-08-04 09:00:00 TS 16.1283 -147.743 main 842 780 P_________P___ EP061988 16.1224 -147.735 HU 82 983 1 16.1519 -147.777 4 81 11 280
1988211N12239 1988 40 EP CP FABIO 1988-08-04 12:00:00 TS 16.2000 -148.300 75 985 hurdat_epa main 780 725 O_________O___ hurdat_epa EP061988 16.2000 -148.300 HU 75 985 1 16.2000 -148.300 4 75 11 275
1988211N12239 1988 40 EP CP FABIO 1988-08-04 15:00:00 TS 16.2264 -148.895 main 725 671 P_________P___ EP061988 16.2375 -148.900 HU 70 989 1 16.1824 -148.874 4 68 11 269
1988211N12239 1988 40 EP CP FABIO 1988-08-04 18:00:00 TS 16.1820 -149.492 65 993 hurdat_epa main 671 634 O_________P___ hurdat_epa EP061988 16.2000 -149.500 HU 65 993 1 16.1100 -149.458 4 62 11 261
1988211N12239 1988 40 EP CP FABIO 1988-08-04 21:00:00 TS 16.0533 -150.054 main 626 600 P_________P___ EP061988 16.0648 -150.058 HU 57 996 0 16.0075 -150.039 4 56 11 255
1988211N12239 1988 40 EP CP FABIO 1988-08-05 00:00:00 TS 15.9000 -150.600 50 999 hurdat_epa main 600 569 O_________O___ hurdat_epa EP061988 15.9000 -150.600 TS 50 999 0 15.9000 -150.600 2 50 11 256
1988211N12239 1988 40 EP CP FABIO 1988-08-05 03:00:00 TS 15.7913 -151.160 main 561 533 P_________P___ EP061988 15.7850 -151.165 TS 47 1000 0 15.8165 -151.138 2 47 11 260
1988211N12239 1988 40 EP CP FABIO 1988-08-05 06:00:00 TS 15.7069 -151.690 45 1002 hurdat_epa main 533 506 O_________P___ hurdat_epa EP061988 15.7000 -151.700 TS 45 1002 0 15.7346 -151.652 2 45 10 262
1988211N12239 1988 40 EP CP FABIO 1988-08-05 09:00:00 TS 15.6520 -152.166 main 500 486 P_________P___ EP061988 15.6499 -152.172 TS 42 1002 0 15.6604 -152.141 2 42 9 263
1988211N12239 1988 40 EP CP FABIO 1988-08-05 12:00:00 TS 15.6000 -152.600 40 1003 hurdat_epa main 486 475 O_________O___ hurdat_epa EP061988 15.6000 -152.600 TS 40 1003 0 15.6000 -152.600 2 40 8 259
1988211N12239 1988 40 EP CP FABIO 1988-08-05 15:00:00 TS 15.4991 -153.013 main 475 461 P_________P___ EP061988 15.4849 -153.008 TS 37 1004 0 15.5561 -153.033 2 37 8 257
1988211N12239 1988 40 EP CP FABIO 1988-08-05 18:00:00 TS 15.4254 -153.407 35 1005 hurdat_epa main 461 440 O_________P___ hurdat_epa EP061988 15.4000 -153.400 TS 35 1005 0 15.5269 -153.437 2 35 8 266
1988211N12239 1988 40 EP CP FABIO 1988-08-05 21:00:00 TS 15.4498 -153.805 main 440 412 P_________P___ EP061988 15.4349 -153.800 TS 32 1005 -1 15.5093 -153.823 2 32 8 276
1988211N12239 1988 40 EP CP FABIO 1988-08-06 00:00:00 TS 15.5000 -154.200 30 1006 hurdat_epa main 412 398 O_________O___ hurdat_epa EP061988 15.5000 -154.200 TD 30 1006 -1 15.5000 -154.200 1 30 8 274
1988211N12239 1988 40 EP CP FABIO 1988-08-06 03:00:00 TS 15.5045 -154.602 main 398 387 P_________P___ EP061988 15.5075 -154.608 TD 30 1006 -1 15.4926 -154.582 1 30 8 270
1988211N12239 1988 40 EP CP FABIO 1988-08-06 06:00:00 TS 15.4984 -154.991 30 1007 hurdat_epa main 387 382 O_________P___ hurdat_epa EP061988 15.5000 -155.000 TD 30 1007 -1 15.4922 -154.957 1 30 7 270
1988211N12239 1988 40 EP CP FABIO 1988-08-06 09:00:00 TS 15.4990 -155.346 main 382 380 P_________P___ EP061988 15.4999 -155.350 TD 30 1007 -1 15.4957 -155.329 1 30 7 270
1988211N12239 1988 40 EP CP FABIO 1988-08-06 12:00:00 TS 15.5000 -155.700 30 1008 hurdat_epa main 380 380 O_________O___ hurdat_epa EP061988 15.5000 -155.700 TD 30 1008 -1 15.5000 -155.700 1 30 7 270
1988211N12239 1988 40 EP CP FABIO 1988-08-06 15:00:00 TS 15.4992 -156.096 main 382 382 P_________P___ EP061988 15.5000 -156.100 TD 30 1008 -1 15.4958 -156.079 1 30 8 270
1988211N12239 1988 40 EP CP FABIO 1988-08-06 18:00:00 TS 15.4985 -156.492 30 1008 hurdat_epa main 389 389 O_________P___ hurdat_epa EP061988 15.5000 -156.500 TD 30 1008 -1 15.4923 -156.458 1 30 7 270
1988211N12239 1988 40 EP CP FABIO 1988-08-06 21:00:00 TS 15.4984 -156.846 main 398 398 P_________P___ EP061988 15.4999 -156.850 TD 30 1008 -1 15.4927 -156.832 1 30 7 270
1988211N12239 1988 40 EP CP FABIO 1988-08-07 00:00:00 TS 15.5000 -157.200 30 1008 hurdat_epa main 412 412 O_________O___ hurdat_epa EP061988 15.5000 -157.200 TD 30 1008 -1 15.5000 -157.200 1 30 7 270
1988211N12239 1988 40 EP CP FABIO 1988-08-07 03:00:00 TS 15.4943 -157.598 main 430 430 P_________P___ EP061988 15.4925 -157.608 TD 30 1008 -1 15.5014 -157.561 1 30 8 270
1988211N12239 1988 40 EP CP FABIO 1988-08-07 06:00:00 TS 15.5025 -157.983 30 1009 hurdat_epa main 452 452 O_________P___ hurdat_epa EP061988 15.5000 -158.000 TD 30 1009 -1 15.5123 -157.915 1 30 7 274
1988211N12239 1988 40 EP CP FABIO 1988-08-07 09:00:00 TS 15.5363 -158.298 main 470 467 P_________P___ EP061988 15.5349 -158.308 TD 30 1009 -1 15.5420 -158.261 1 30 6 279
1988211N12239 1988 40 EP CP FABIO 1988-08-07 12:00:00 TS 15.6000 -158.600 30 1009 hurdat_epa main 480 480 O_________O___ hurdat_epa EP061988 15.6000 -158.600 TD 30 1009 -1 15.6000 -158.600 1 30 6 284
1988211N12239 1988 40 EP CP FABIO 1988-08-07 15:00:00 TS 15.6872 -158.947 main 493 493 P_________P___ EP061988 15.6850 -158.950 TD 30 1009 -1 15.6961 -158.936 1 30 7 287
1988211N12239 1988 40 EP CP FABIO 1988-08-07 18:00:00 TS 15.8040 -159.293 30 1009 hurdat_epa main 515 515 O_________P___ hurdat_epa EP061988 15.8000 -159.300 TD 30 1009 -1 15.8198 -159.265 1 30 7 293
1988211N12239 1988 40 EP CP FABIO 1988-08-07 21:00:00 TS 15.9517 -159.603 main 523 523 P_________P___ EP061988 15.9499 -159.607 TD 30 1009 -1 15.9586 -159.586 1 30 7 297
1988211N12239 1988 40 EP CP FABIO 1988-08-08 00:00:00 TS 16.1000 -159.900 30 1010 hurdat_epa main 540 540 O_________O___ hurdat_epa EP061988 16.1000 -159.900 TD 30 1010 -1 16.1000 -159.900 1 30 6 294
1988211N12239 1988 40 EP CP FABIO 1988-08-08 03:00:00 TS 16.2057 -160.202 main 559 559 P_________P___ EP061988 16.2000 -160.200 TD 30 1010 -1 16.2289 -160.211 1 30 6 290
1988211N12239 1988 40 EP CP FABIO 1988-08-08 06:00:00 TS 16.3115 -160.503 30 1010 hurdat_epa main 579 579 O_________P___ hurdat_epa EP061988 16.3000 -160.500 TD 30 1010 -1 16.3573 -160.515 1 30 6 293
1988211N12239 1988 40 EP CP FABIO 1988-08-08 09:00:00 TS 16.4564 -160.808 main 594 594 P_________P___ EP061988 16.4500 -160.807 TD 30 1010 -1 16.4821 -160.811 1 30 6 297
1988211N12239 1988 40 EP CP FABIO 1988-08-08 12:00:00 TS 16.6000 -161.100 30 1010 hurdat_epa main 613 609 O_________O___ hurdat_epa EP061988 16.6000 -161.100 TD 30 1010 -1 16.6000 -161.100 1 30 6 295
1988211N12239 1988 40 EP CP FABIO 1988-08-08 15:00:00 TS 16.7057 -161.356 main 616 608 P_________P___ EP061988 16.7074 -161.350 TD 27 1010 -1 16.6989 -161.378 1 28 5 292
1988211N12239 1988 40 EP CP FABIO 1988-08-08 18:00:00 TS 16.7984 -161.610 25 1011 hurdat_epa main 611 607 O_________P___ hurdat_epa EP061988 16.8000 -161.600 TD 25 1011 -1 16.7922 -161.650 1 27 6 290
1988211N12239 1988 40 EP CP FABIO 1988-08-08 21:00:00 TS 16.8919 -161.898 main 611 608 P_________P___ EP061988 16.8925 -161.893 TD 25 1011 -1 16.8895 -161.922 1 26 6 290
1988211N12239 1988 40 EP CP FABIO 1988-08-09 00:00:00 TS 17.0000 -162.200 25 1011 hurdat_epa main 613 607 O_________O___ hurdat_epa EP061988 17.0000 -162.200 TD 25 1011 -1 17.0000 -162.200 1 25 6 293
1988211N12239 1988 40 EP CP FABIO 1988-08-09 03:00:00 TS 17.1390 -162.499 main 616 606 P_________P___ EP061988 17.1425 -162.500 TD 25 1011 -1 17.1252 -162.493 1 25 6 297
1988211N12239 1988 40 EP CP FABIO 1988-08-09 06:00:00 TS 17.2932 -162.799 25 1012 hurdat_epa main 612 608 O_________P___ hurdat_epa EP061988 17.3000 -162.800 TD 25 1012 -1 17.2658 -162.793 1 25 6 298
1988211N12239 1988 40 EP CP FABIO 1988-08-09 09:00:00 TS 17.4387 -163.099 main 619 610 P_________P___ EP061988 17.4425 -163.100 TD 25 1012 -1 17.4235 -163.097 1 25 7 298
1988211N12239 1988 40 EP CP FABIO 1988-08-09 12:00:00 TS 17.6000 -163.400 25 1012 hurdat_epa main 619 617 O_________O___ hurdat_epa EP061988 17.6000 -163.400 TD 25 1012 -1 17.6000 -163.400 1 25 7 302
1988211N12239 1988 40 EP CP FABIO 1988-08-09 15:00:00 TS 17.7911 -163.700 main 621 619 P_________P___ EP061988 17.7901 -163.700 TD 22 1012 -1 17.7950 -163.701 1 22 7 305
1988211N12239 1988 40 EP CP FABIO 1988-08-09 18:00:00 TS 18.0000 -164.000 20 1012 hurdat_epa main 626 O_________O___ hurdat_epa EP061988 18.0000 -164.000 TD 20 1012 -1 18.0000 -164.000 1 20 7 306

IBTrACS Databaseについて

本データベースは、米国NOAAが公開する1842年以降の世界の熱帯低気圧のベストトラックデータアーカイブInternational Best Track Archive for Climate Stewardship (IBTrACS)を、ウェブで閲覧しやすい形式に変換したものです。

最終更新日:2021-12-01